createdAt,value
2022-10-12T00:00:43.444Z,100.00
2022-10-12T00:03:13.525Z,100.00
2022-10-12T00:05:42.946Z,100.00
2022-10-12T00:08:12.977Z,100.00
2022-10-12T00:10:43.574Z,100.00
2022-10-12T00:13:12.335Z,100.00
2022-10-12T00:15:45.900Z,100.00
2022-10-12T00:18:15.360Z,100.00
2022-10-12T00:20:44.775Z,100.00
2022-10-12T00:23:14.529Z,100.00
2022-10-12T00:25:44.316Z,100.00
2022-10-12T00:28:13.937Z,100.00
2022-10-12T00:30:43.508Z,100.00
2022-10-12T00:33:13.405Z,100.00
2022-10-12T00:35:42.901Z,100.00
2022-10-12T00:38:12.913Z,100.00
2022-10-12T00:40:42.520Z,100.00
2022-10-12T00:43:31.028Z,100.00
2022-10-12T00:45:58.811Z,100.00
2022-10-12T00:48:25.272Z,100.00
2022-10-12T00:51:00.913Z,100.00
2022-10-12T00:53:31.253Z,100.00
2022-10-12T00:56:00.998Z,100.00
2022-10-12T00:58:30.737Z,100.00
2022-10-12T01:01:03.172Z,100.00
2022-10-12T01:03:29.461Z,100.00
2022-10-12T01:05:55.818Z,100.00
2022-10-12T01:08:22.613Z,100.00
2022-10-12T01:10:49.345Z,100.00
2022-10-12T01:13:20.401Z,100.00
2022-10-12T01:16:05.924Z,100.00
2022-10-12T01:18:46.028Z,100.00
2022-10-12T01:21:19.715Z,100.00
2022-10-12T01:23:58.568Z,100.00
2022-10-12T01:26:29.702Z,100.00
2022-10-12T01:29:08.022Z,100.00
2022-10-12T01:31:52.957Z,100.00
2022-10-12T01:34:32.978Z,100.00
2022-10-12T01:37:27.981Z,100.00
2022-10-12T01:40:00.064Z,100.00
2022-10-12T01:42:46.725Z,100.00
2022-10-12T01:45:18.718Z,100.00
2022-10-12T01:47:51.692Z,100.00
2022-10-12T01:50:21.093Z,100.00
2022-10-12T01:53:10.174Z,100.00
2022-10-12T01:55:52.629Z,100.00
2022-10-12T01:58:27.645Z,100.00
2022-10-12T02:01:03.515Z,100.00
2022-10-12T02:03:35.563Z,100.00
2022-10-12T02:06:08.898Z,100.00
2022-10-12T02:08:37.908Z,100.00
2022-10-12T02:11:13.007Z,100.00
2022-10-12T02:13:46.540Z,100.00
2022-10-12T02:16:16.631Z,100.00
2022-10-12T02:18:46.225Z,100.00
2022-10-12T02:21:14.405Z,100.00
2022-10-12T02:23:40.565Z,100.00
2022-10-12T02:26:07.388Z,100.00
2022-10-12T02:28:35.560Z,100.00
2022-10-12T02:31:09.635Z,100.00
2022-10-12T02:33:46.719Z,100.00
2022-10-12T02:36:18.044Z,100.00
2022-10-12T02:38:59.711Z,100.00
2022-10-12T02:41:34.694Z,100.00
2022-10-12T02:44:02.979Z,100.00
2022-10-12T02:46:29.919Z,100.00
2022-10-12T02:48:58.338Z,100.00
2022-10-12T02:51:26.314Z,100.00
2022-10-12T02:53:52.649Z,100.00
2022-10-12T02:56:18.647Z,100.00
2022-10-12T02:58:45.787Z,100.00
2022-10-12T03:01:12.797Z,100.00
2022-10-12T03:03:39.812Z,100.00
2022-10-12T03:06:06.086Z,100.00
2022-10-12T03:08:32.094Z,100.00
2022-10-12T03:11:06.133Z,100.00
2022-10-12T03:13:32.239Z,100.00
2022-10-12T03:16:04.925Z,100.00
2022-10-12T03:18:31.689Z,100.00
2022-10-12T03:20:57.720Z,100.00
2022-10-12T03:23:23.757Z,100.00
2022-10-12T03:25:49.746Z,100.00
2022-10-12T03:28:15.842Z,100.00
2022-10-12T03:30:42.974Z,100.00
2022-10-12T03:33:09.014Z,100.00
2022-10-12T03:35:35.059Z,100.00
2022-10-12T03:38:01.147Z,100.00
2022-10-12T03:40:27.189Z,100.00
2022-10-12T03:42:53.344Z,100.00
2022-10-12T03:45:19.355Z,100.00
2022-10-12T03:47:45.494Z,100.00
2022-10-12T03:50:11.524Z,100.00
2022-10-12T03:52:37.534Z,100.00
2022-10-12T03:55:03.835Z,100.00
2022-10-12T03:57:29.858Z,100.00
2022-10-12T03:59:55.886Z,100.00
2022-10-12T04:02:21.944Z,100.00
2022-10-12T04:04:47.947Z,100.00
2022-10-12T04:07:14.021Z,100.00
2022-10-12T04:09:40.030Z,100.00
2022-10-12T04:12:06.223Z,100.00
2022-10-12T04:14:32.249Z,100.00
2022-10-12T04:16:58.252Z,100.00
2022-10-12T04:19:24.233Z,100.00
2022-10-12T04:21:50.237Z,100.00
2022-10-12T04:24:16.302Z,100.00
2022-10-12T04:26:42.341Z,100.00
2022-10-12T04:29:11.114Z,100.00
2022-10-12T04:31:37.122Z,100.00
2022-10-12T04:34:03.141Z,100.00
2022-10-12T04:36:29.148Z,100.00
2022-10-12T04:39:00.653Z,100.00
2022-10-12T04:41:27.246Z,100.00
2022-10-12T04:43:53.413Z,100.00
2022-10-12T04:46:19.418Z,100.00
2022-10-12T04:48:45.437Z,100.00
2022-10-12T04:51:11.511Z,100.00
2022-10-12T04:53:37.592Z,100.00
2022-10-12T04:56:05.198Z,100.00
2022-10-12T04:58:31.773Z,100.00
2022-10-12T05:00:58.198Z,100.00
2022-10-12T05:03:24.617Z,100.00
2022-10-12T05:05:50.764Z,100.00
2022-10-12T05:08:16.824Z,100.00
2022-10-12T05:10:43.167Z,100.00
2022-10-12T05:13:09.203Z,100.00
2022-10-12T05:15:35.194Z,100.00
2022-10-12T05:18:01.198Z,100.00
2022-10-12T05:20:27.198Z,100.00
2022-10-12T05:22:53.202Z,100.00
2022-10-12T05:25:19.381Z,100.00
2022-10-12T05:27:45.393Z,100.00
2022-10-12T05:30:11.740Z,100.00
2022-10-12T05:32:38.128Z,100.00
2022-10-12T05:35:04.753Z,100.00
2022-10-12T05:37:32.693Z,100.00
2022-10-12T05:39:58.757Z,100.00
2022-10-12T05:42:24.842Z,100.00
2022-10-12T05:44:50.859Z,100.00
2022-10-12T05:47:16.887Z,100.00
2022-10-12T05:49:42.889Z,100.00
2022-10-12T05:52:08.899Z,100.00
2022-10-12T05:54:34.923Z,100.00
2022-10-12T05:57:00.987Z,100.00
2022-10-12T05:59:26.982Z,100.00
2022-10-12T06:01:53.210Z,100.00
2022-10-12T06:04:19.495Z,100.00
2022-10-12T06:06:45.523Z,100.00
2022-10-12T06:09:12.273Z,100.00
2022-10-12T06:11:38.928Z,100.00
2022-10-12T06:14:04.975Z,100.00
2022-10-12T06:16:31.037Z,100.00
2022-10-12T06:18:57.039Z,100.00
2022-10-12T06:21:38.455Z,100.00
2022-10-12T06:24:04.882Z,100.00
2022-10-12T06:26:30.974Z,100.00
2022-10-12T06:28:57.128Z,100.00
2022-10-12T06:31:23.198Z,100.00
2022-10-12T06:33:50.257Z,100.00
2022-10-12T06:36:16.357Z,100.00
2022-10-12T06:38:42.366Z,100.00
2022-10-12T06:41:08.400Z,100.00
2022-10-12T06:43:34.384Z,100.00
2022-10-12T06:46:01.103Z,100.00
2022-10-12T06:48:27.281Z,100.00
2022-10-12T06:50:53.323Z,100.00
2022-10-12T06:53:19.429Z,100.00
2022-10-12T06:55:45.442Z,100.00
2022-10-12T06:58:11.523Z,100.00
2022-10-12T07:00:38.106Z,100.00
2022-10-12T07:03:04.290Z,100.00
2022-10-12T07:05:30.435Z,100.00
2022-10-12T07:07:56.517Z,100.00
2022-10-12T07:10:22.994Z,100.00
2022-10-12T07:12:49.010Z,100.00
2022-10-12T07:15:15.129Z,100.00
2022-10-12T07:17:41.356Z,100.00
2022-10-12T07:20:07.856Z,100.00
2022-10-12T07:22:33.964Z,100.00
2022-10-12T07:25:00.050Z,100.00
2022-10-12T07:27:26.033Z,100.00
2022-10-12T07:29:52.042Z,100.00
2022-10-12T07:32:18.127Z,100.00
2022-10-12T07:34:44.204Z,100.00
2022-10-12T07:37:10.734Z,100.00
2022-10-12T07:39:37.359Z,100.00
2022-10-12T07:42:03.405Z,100.00
2022-10-12T07:44:30.059Z,100.00
2022-10-12T07:46:56.084Z,100.00
2022-10-12T07:49:22.143Z,100.00
2022-10-12T07:51:48.155Z,100.00
2022-10-12T07:54:19.901Z,100.00
2022-10-12T07:56:47.264Z,100.00
2022-10-12T07:59:13.399Z,100.00
2022-10-12T08:01:39.477Z,100.00
2022-10-12T08:04:05.495Z,100.00
2022-10-12T08:06:32.913Z,100.00
2022-10-12T08:08:59.981Z,100.00
2022-10-12T08:11:26.136Z,100.00
2022-10-12T08:13:52.336Z,100.00
2022-10-12T08:16:19.900Z,100.00
2022-10-12T08:18:46.528Z,100.00
2022-10-12T08:21:13.783Z,100.00
2022-10-12T08:23:39.846Z,100.00
2022-10-12T08:26:06.396Z,100.00
2022-10-12T08:28:32.939Z,100.00
2022-10-12T08:30:59.001Z,100.00
2022-10-12T08:33:28.226Z,100.00
2022-10-12T08:35:54.258Z,100.00
2022-10-12T08:38:20.298Z,100.00
2022-10-12T08:40:53.371Z,100.00
2022-10-12T08:43:48.697Z,100.00
2022-10-12T08:46:21.016Z,100.00
2022-10-12T08:49:18.407Z,100.00
2022-10-12T08:52:00.591Z,100.00
2022-10-12T08:54:31.341Z,100.00
2022-10-12T08:56:57.443Z,100.00
2022-10-12T08:59:25.399Z,100.00
2022-10-12T09:01:57.791Z,100.00
2022-10-12T09:04:39.145Z,100.00
2022-10-12T09:07:20.318Z,100.00
2022-10-12T09:09:58.248Z,100.00
2022-10-12T09:12:33.264Z,100.00
2022-10-12T09:15:02.710Z,100.00
2022-10-12T09:17:40.289Z,100.00
2022-10-12T09:20:20.025Z,100.00
2022-10-12T09:22:51.706Z,100.00
2022-10-12T09:25:25.004Z,100.00
2022-10-12T09:27:51.798Z,100.00
2022-10-12T09:30:18.967Z,100.00
2022-10-12T09:32:50.873Z,100.00
2022-10-12T09:35:17.429Z,100.00
2022-10-12T09:37:47.732Z,100.00
2022-10-12T09:40:32.423Z,100.00
2022-10-12T09:43:02.593Z,100.00
2022-10-12T09:45:31.585Z,100.00
2022-10-12T09:48:21.315Z,100.00
2022-10-12T09:50:50.541Z,100.00
2022-10-12T09:53:34.764Z,100.00
2022-10-12T09:56:09.753Z,99.65
2022-10-12T09:58:49.106Z,99.06
2022-10-12T10:01:22.541Z,100.00
2022-10-12T10:03:59.874Z,98.15
2022-10-12T10:06:25.882Z,97.90
2022-10-12T10:08:52.023Z,100.00
2022-10-12T10:11:23.089Z,100.00
2022-10-12T10:13:51.463Z,100.00
2022-10-12T10:16:18.280Z,100.00
2022-10-12T10:18:50.303Z,100.00
2022-10-12T10:21:33.176Z,97.62
2022-10-12T10:24:04.432Z,94.33
2022-10-12T10:26:59.621Z,95.59
2022-10-12T10:29:31.665Z,98.87
2022-10-12T10:32:23.051Z,96.56
2022-10-12T10:35:11.832Z,96.83
2022-10-12T10:37:42.854Z,96.79
2022-10-12T10:40:29.437Z,95.84
2022-10-12T10:43:03.490Z,95.07
2022-10-12T10:45:38.072Z,94.78
2022-10-12T10:48:15.261Z,92.13
2022-10-12T10:50:43.161Z,89.77
2022-10-12T10:53:21.483Z,87.91
2022-10-12T10:55:53.519Z,87.93
2022-10-12T10:58:27.433Z,86.29
2022-10-12T11:00:57.393Z,86.39
2022-10-12T11:03:28.362Z,85.51
2022-10-12T11:06:08.208Z,82.41
2022-10-12T11:08:35.879Z,85.50
2022-10-12T11:11:08.133Z,84.35
2022-10-12T11:13:39.386Z,87.28
2022-10-12T11:16:20.398Z,82.46
2022-10-12T11:18:58.115Z,82.36
2022-10-12T11:21:36.039Z,85.51
2022-10-12T11:24:17.934Z,81.67
2022-10-12T11:26:49.401Z,82.54
2022-10-12T11:29:17.373Z,81.38
2022-10-12T11:32:07.081Z,78.36
2022-10-12T11:34:57.927Z,77.55
2022-10-12T11:37:33.085Z,77.58
2022-10-12T11:39:59.527Z,78.23
2022-10-12T11:42:30.825Z,78.82
2022-10-12T11:44:57.082Z,76.94
2022-10-12T11:47:29.147Z,80.20
2022-10-12T11:50:03.667Z,78.74
2022-10-12T11:52:44.755Z,83.75
2022-10-12T11:55:49.945Z,83.80
2022-10-12T11:58:42.331Z,78.69
2022-10-12T12:01:33.762Z,79.59
2022-10-12T12:04:29.554Z,79.94
2022-10-12T12:07:00.505Z,81.16
2022-10-12T12:09:42.567Z,83.43
2022-10-12T12:12:22.818Z,85.76
2022-10-12T12:14:54.964Z,86.80
2022-10-12T12:17:21.231Z,89.16
2022-10-12T12:19:54.925Z,88.75
2022-10-12T12:22:25.830Z,87.38
2022-10-12T12:24:57.855Z,84.90
2022-10-12T12:27:31.328Z,87.17
2022-10-12T12:29:59.072Z,82.20
2022-10-12T12:32:26.419Z,81.18
2022-10-12T12:35:00.447Z,78.90
2022-10-12T12:37:31.413Z,80.90
2022-10-12T12:39:58.814Z,77.75
2022-10-12T12:42:27.521Z,73.47
2022-10-12T12:44:53.693Z,74.04
2022-10-12T12:47:51.918Z,71.29
2022-10-12T12:50:34.774Z,70.50
2022-10-12T12:53:21.041Z,73.03
2022-10-12T12:56:04.715Z,73.21
2022-10-12T12:58:54.111Z,77.44
2022-10-12T13:01:26.135Z,78.66
2022-10-12T13:04:29.770Z,81.25
2022-10-12T13:07:02.041Z,77.85
2022-10-12T13:09:55.154Z,77.79
2022-10-12T13:12:27.076Z,77.53
2022-10-12T13:15:08.359Z,76.42
2022-10-12T13:17:38.495Z,75.12
2022-10-12T13:20:26.499Z,76.23
2022-10-12T13:22:54.356Z,79.63
2022-10-12T13:25:20.667Z,76.05
2022-10-12T13:27:49.016Z,79.25
2022-10-12T13:30:35.216Z,79.38
2022-10-12T13:33:13.500Z,77.81
2022-10-12T13:35:46.942Z,80.22
2022-10-12T13:38:22.022Z,78.23
2022-10-12T13:40:50.883Z,76.43
2022-10-12T13:43:36.089Z,80.07
2022-10-12T13:46:02.189Z,84.69
2022-10-12T13:48:57.430Z,81.53
2022-10-12T13:51:23.029Z,81.13
2022-10-12T13:53:49.457Z,79.31
2022-10-12T13:56:35.743Z,79.38
2022-10-12T13:59:05.417Z,77.41
2022-10-12T14:01:49.842Z,80.71
2022-10-12T14:04:15.963Z,81.06
2022-10-12T14:06:46.847Z,81.00
2022-10-12T14:09:18.753Z,82.91
2022-10-12T14:11:45.917Z,85.95
2022-10-12T14:14:36.602Z,85.88
2022-10-12T14:17:03.044Z,87.80
2022-10-12T14:19:52.309Z,88.23
2022-10-12T14:22:22.427Z,89.65
2022-10-12T14:24:48.842Z,91.98
2022-10-12T14:27:22.233Z,92.66
2022-10-12T14:29:49.467Z,93.75
2022-10-12T14:32:15.460Z,93.65
2022-10-12T14:34:44.368Z,94.47
2022-10-12T14:37:16.126Z,94.65
2022-10-12T14:39:43.588Z,94.54
2022-10-12T14:42:30.127Z,96.06
2022-10-12T14:44:56.237Z,96.00
2022-10-12T14:47:29.515Z,96.94
2022-10-12T14:49:57.384Z,97.14
2022-10-12T14:52:41.363Z,97.66
2022-10-12T14:55:18.860Z,97.84
2022-10-12T14:57:45.625Z,98.47
2022-10-12T15:00:17.130Z,99.32
2022-10-12T15:02:43.551Z,99.91
2022-10-12T15:05:11.882Z,100.00
2022-10-12T15:07:37.923Z,100.00
2022-10-12T15:10:04.535Z,100.00
2022-10-12T15:12:30.695Z,100.00
2022-10-12T15:14:59.598Z,100.00
2022-10-12T15:17:26.028Z,100.00
2022-10-12T15:19:52.418Z,100.00
2022-10-12T15:22:21.520Z,100.00
2022-10-12T15:24:47.989Z,100.00
2022-10-12T15:27:14.589Z,100.00
2022-10-12T15:29:40.958Z,100.00
2022-10-12T15:32:11.976Z,100.00
2022-10-12T15:34:38.207Z,100.00
2022-10-12T15:37:08.850Z,100.00
2022-10-12T15:39:35.494Z,100.00
2022-10-12T15:42:01.538Z,100.00
2022-10-12T15:44:27.682Z,100.00
2022-10-12T15:46:53.742Z,100.00
2022-10-12T15:49:23.515Z,100.00
2022-10-12T15:51:52.437Z,100.00
2022-10-12T15:54:18.703Z,100.00
2022-10-12T15:56:45.076Z,100.00
2022-10-12T15:59:11.192Z,100.00
2022-10-12T16:01:37.871Z,100.00
2022-10-12T16:04:05.091Z,100.00
2022-10-12T16:06:31.541Z,100.00
2022-10-12T16:08:57.563Z,100.00
2022-10-12T16:11:23.580Z,100.00
2022-10-12T16:13:55.415Z,100.00
2022-10-12T16:16:22.553Z,100.00
2022-10-12T16:18:49.018Z,100.00
2022-10-12T16:21:15.194Z,100.00
2022-10-12T16:23:41.260Z,100.00
2022-10-12T16:26:10.454Z,100.00
2022-10-12T16:28:36.995Z,100.00
2022-10-12T16:31:09.279Z,100.00
2022-10-12T16:33:35.342Z,100.00
2022-10-12T16:36:07.470Z,100.00
2022-10-12T16:38:33.468Z,100.00
2022-10-12T16:40:59.567Z,100.00
2022-10-12T16:43:25.592Z,100.00
2022-10-12T16:45:55.359Z,100.00
2022-10-12T16:48:21.424Z,100.00
2022-10-12T16:50:47.408Z,100.00
2022-10-12T16:53:13.398Z,100.00
2022-10-12T16:55:39.397Z,100.00
2022-10-12T16:58:05.462Z,100.00
2022-10-12T17:00:31.625Z,100.00
2022-10-12T17:02:57.730Z,100.00
2022-10-12T17:05:23.948Z,100.00
2022-10-12T17:07:49.949Z,100.00
2022-10-12T17:10:15.997Z,100.00
2022-10-12T17:12:41.995Z,100.00
2022-10-12T17:15:08.616Z,100.00
2022-10-12T17:17:34.662Z,100.00
2022-10-12T17:22:31.805Z,100.00
2022-10-12T17:24:57.858Z,100.00
2022-10-12T17:27:26.405Z,100.00
2022-10-12T17:29:54.626Z,100.00
2022-10-12T17:32:20.694Z,100.00
2022-10-12T17:34:46.693Z,100.00
2022-10-12T17:37:13.151Z,100.00
2022-10-12T17:39:44.945Z,100.00
2022-10-12T17:42:11.314Z,100.00
2022-10-12T17:44:45.642Z,100.00
2022-10-12T17:47:13.669Z,100.00
2022-10-12T17:50:05.600Z,100.00
2022-10-12T17:52:38.823Z,100.00
2022-10-12T17:55:05.500Z,100.00
2022-10-12T17:57:35.744Z,100.00
2022-10-12T18:00:06.992Z,100.00
2022-10-12T18:02:36.437Z,100.00
2022-10-12T18:05:02.712Z,100.00
2022-10-12T18:07:32.846Z,100.00
2022-10-12T18:10:03.993Z,100.00
2022-10-12T18:12:30.346Z,100.00
2022-10-12T18:15:06.790Z,100.00
2022-10-12T18:17:36.989Z,100.00
2022-10-12T18:20:07.784Z,100.00
2022-10-12T18:22:33.820Z,100.00
2022-10-12T18:25:04.012Z,100.00
2022-10-12T18:27:34.407Z,100.00
2022-10-12T18:30:01.114Z,100.00
2022-10-12T18:32:27.283Z,100.00
2022-10-12T18:34:57.580Z,100.00
2022-10-12T18:37:27.379Z,100.00
2022-10-12T18:39:53.692Z,100.00
2022-10-12T18:42:20.227Z,100.00
2022-10-12T18:44:50.453Z,100.00
2022-10-12T18:47:24.243Z,100.00
2022-10-12T18:49:50.771Z,100.00
2022-10-12T18:52:25.231Z,100.00
2022-10-12T18:54:55.966Z,100.00
2022-10-12T18:57:22.384Z,100.00
2022-10-12T18:59:52.051Z,100.00
2022-10-12T19:02:22.127Z,100.00
2022-10-12T19:04:52.770Z,100.00
2022-10-12T19:07:18.851Z,100.00
2022-10-12T19:09:44.981Z,100.00
2022-10-12T19:12:16.176Z,100.00
2022-10-12T19:14:42.502Z,100.00
2022-10-12T19:17:08.616Z,100.00
2022-10-12T19:19:34.767Z,100.00
2022-10-12T19:22:06.272Z,100.00
2022-10-12T19:24:32.639Z,100.00
2022-10-12T19:26:59.001Z,100.00
2022-10-12T19:29:25.193Z,100.00
2022-10-12T19:31:58.877Z,100.00
2022-10-12T19:34:28.053Z,100.00
2022-10-12T19:36:56.989Z,100.00
2022-10-12T19:39:27.330Z,100.00
2022-10-12T19:41:56.779Z,100.00
2022-10-12T19:44:26.339Z,100.00
2022-10-12T19:46:57.578Z,100.00
2022-10-12T19:49:36.467Z,100.00
2022-10-12T19:52:03.452Z,100.00
2022-10-12T19:54:35.936Z,100.00
2022-10-12T19:57:02.382Z,100.00
2022-10-12T19:59:31.124Z,100.00
2022-10-12T20:02:00.380Z,100.00
2022-10-12T20:04:30.293Z,100.00
2022-10-12T20:07:04.343Z,100.00
2022-10-12T20:09:34.284Z,100.00
2022-10-12T20:12:03.950Z,100.00
2022-10-12T20:14:33.587Z,100.00
2022-10-12T20:17:03.409Z,100.00
2022-10-12T20:19:33.188Z,100.00
2022-10-12T20:22:02.979Z,100.00
2022-10-12T20:24:37.140Z,100.00
2022-10-12T20:27:05.271Z,100.00
2022-10-12T20:29:35.296Z,100.00
2022-10-12T20:32:05.736Z,100.00
2022-10-12T20:34:35.302Z,100.00
2022-10-12T20:37:04.977Z,100.00
2022-10-12T20:39:35.232Z,100.00
2022-10-12T20:42:04.527Z,100.00
2022-10-12T20:44:34.283Z,100.00
2022-10-12T20:47:04.319Z,100.00
2022-10-12T20:49:34.209Z,100.00
2022-10-12T20:52:07.668Z,100.00
2022-10-12T20:54:37.585Z,100.00
2022-10-12T20:57:07.199Z,100.00
2022-10-12T20:59:37.833Z,100.00
2022-10-12T21:02:08.692Z,100.00
2022-10-12T21:04:38.474Z,100.00
2022-10-12T21:07:06.961Z,100.00
2022-10-12T21:09:40.776Z,100.00
2022-10-12T21:12:11.392Z,100.00
2022-10-12T21:14:41.537Z,100.00
2022-10-12T21:17:12.475Z,100.00
2022-10-12T21:19:42.177Z,100.00
2022-10-12T21:22:11.847Z,100.00
2022-10-12T21:24:41.806Z,100.00
2022-10-12T21:27:13.428Z,100.00
2022-10-12T21:29:43.428Z,100.00
2022-10-12T21:32:13.276Z,100.00
2022-10-12T21:34:43.192Z,100.00
2022-10-12T21:37:14.529Z,100.00
2022-10-12T21:39:44.272Z,100.00
2022-10-12T21:42:13.643Z,100.00
2022-10-12T21:44:44.059Z,100.00
2022-10-12T21:47:18.223Z,100.00
2022-10-12T21:49:48.784Z,100.00
2022-10-12T21:52:18.933Z,100.00
2022-10-12T21:54:49.800Z,100.00
2022-10-12T21:57:19.188Z,100.00
2022-10-12T21:59:48.268Z,100.00
2022-10-12T22:02:17.768Z,100.00
2022-10-12T22:04:46.771Z,100.00
2022-10-12T22:07:16.435Z,100.00
2022-10-12T22:09:46.105Z,100.00
2022-10-12T22:12:20.549Z,100.00
2022-10-12T22:14:49.796Z,100.00
2022-10-12T22:17:19.496Z,100.00
2022-10-12T22:19:48.976Z,100.00
2022-10-12T22:22:20.402Z,100.00
2022-10-12T22:24:49.313Z,100.00
2022-10-12T22:27:19.006Z,100.00
2022-10-12T22:29:48.632Z,100.00
2022-10-12T22:32:18.444Z,100.00
2022-10-12T22:34:47.648Z,100.00
2022-10-12T22:37:17.122Z,100.00
2022-10-12T22:39:50.018Z,100.00
2022-10-12T22:42:19.482Z,100.00
2022-10-12T22:44:48.737Z,100.00
2022-10-12T22:47:18.685Z,100.00
2022-10-12T22:49:47.429Z,100.00
2022-10-12T22:52:16.689Z,100.00
2022-10-12T22:54:45.949Z,100.00
2022-10-12T22:57:14.906Z,100.00
2022-10-12T22:59:43.904Z,100.00
2022-10-12T23:02:12.712Z,100.00
2022-10-12T23:04:41.957Z,100.00
2022-10-12T23:07:11.429Z,100.00
2022-10-12T23:09:43.428Z,100.00
2022-10-12T23:12:10.287Z,100.00
2022-10-12T23:14:39.667Z,100.00
2022-10-12T23:17:12.366Z,100.00
2022-10-12T23:19:42.035Z,100.00
2022-10-12T23:22:10.994Z,100.00
2022-10-12T23:24:40.394Z,100.00
2022-10-12T23:27:09.517Z,100.00
2022-10-12T23:29:38.812Z,100.00
2022-10-12T23:32:07.894Z,100.00
2022-10-12T23:34:37.431Z,100.00
2022-10-12T23:37:07.084Z,100.00
2022-10-12T23:39:36.150Z,100.00
2022-10-12T23:42:05.764Z,100.00
2022-10-12T23:44:35.054Z,100.00
2022-10-12T23:47:04.467Z,100.00
2022-10-12T23:49:34.078Z,100.00
2022-10-12T23:52:03.289Z,100.00
2022-10-12T23:54:37.107Z,100.00
2022-10-12T23:57:06.718Z,100.00
2022-10-12T23:59:40.039Z,100.00
